createdAt,value
2022-08-17T00:00:52.182Z,21.20
2022-08-17T00:03:24.429Z,28.38
2022-08-17T00:05:58.665Z,27.40
2022-08-17T00:08:32.095Z,21.88
2022-08-17T00:11:02.450Z,21.67
2022-08-17T00:13:35.341Z,23.48
2022-08-17T00:16:07.793Z,24.85
2022-08-17T00:18:58.300Z,24.00
2022-08-17T00:22:29.841Z,23.15
2022-08-17T00:24:21.753Z,30.05
2022-08-17T00:26:50.922Z,25.15
2022-08-17T00:29:20.805Z,26.13
2022-08-17T00:31:51.239Z,29.50
2022-08-17T00:34:20.542Z,29.00
2022-08-17T00:36:49.928Z,31.25
2022-08-17T00:39:20.987Z,38.08
2022-08-17T00:41:50.335Z,30.92
2022-08-17T00:44:19.753Z,33.85
2022-08-17T00:46:49.376Z,33.78
2022-08-17T00:49:19.905Z,30.15
2022-08-17T00:51:54.536Z,36.15
2022-08-17T00:54:28.736Z,32.53
2022-08-17T00:57:04.014Z,29.10
2022-08-17T00:59:37.942Z,32.80
2022-08-17T01:02:10.254Z,32.97
2022-08-17T01:04:40.220Z,31.15
2022-08-17T01:07:11.373Z,27.52
2022-08-17T01:09:42.886Z,30.02
2022-08-17T01:12:13.584Z,28.70
2022-08-17T01:14:43.012Z,27.70
2022-08-17T01:17:12.358Z,30.63
2022-08-17T01:19:43.157Z,29.02
2022-08-17T01:22:25.887Z,30.35
2022-08-17T01:24:59.977Z,30.88
2022-08-17T01:27:30.581Z,29.38
2022-08-17T01:30:04.469Z,27.77
2022-08-17T01:32:54.462Z,32.45
2022-08-17T01:35:23.936Z,33.97
2022-08-17T01:37:54.790Z,31.67
2022-08-17T01:40:30.678Z,34.25
2022-08-17T01:43:03.104Z,28.02
2022-08-17T01:45:35.253Z,31.98
2022-08-17T01:48:04.777Z,26.85
2022-08-17T01:50:38.175Z,28.52
2022-08-17T01:53:14.707Z,26.42
2022-08-17T01:55:50.756Z,32.25
2022-08-17T01:58:21.742Z,27.90
2022-08-17T02:01:01.174Z,30.13
2022-08-17T02:03:33.169Z,31.58
2022-08-17T02:06:02.609Z,33.47
2022-08-17T02:08:38.103Z,25.38
2022-08-17T02:11:14.180Z,27.90
2022-08-17T02:13:44.556Z,26.95
2022-08-17T02:16:16.032Z,25.45
2022-08-17T02:21:14.921Z,21.58
2022-08-17T02:23:49.678Z,20.95
2022-08-17T02:26:26.368Z,25.52
2022-08-17T02:28:56.416Z,24.05
2022-08-17T02:31:25.492Z,20.70
2022-08-17T02:33:56.840Z,19.45
2022-08-17T02:36:33.102Z,21.48
2022-08-17T02:39:04.789Z,24.00
2022-08-17T02:41:34.001Z,18.02
2022-08-17T02:44:03.462Z,16.75
2022-08-17T02:46:33.390Z,21.08
2022-08-17T02:49:03.518Z,18.73
2022-08-17T02:51:33.556Z,15.85
2022-08-17T02:54:40.687Z,15.65
2022-08-17T02:56:54.779Z,20.95
2022-08-17T02:59:24.609Z,20.83
2022-08-17T03:01:54.102Z,18.50
2022-08-17T03:04:23.726Z,16.67
2022-08-17T03:06:53.080Z,22.02
2022-08-17T03:09:23.429Z,24.38
2022-08-17T03:11:53.181Z,19.35
2022-08-17T03:14:26.359Z,20.35
2022-08-17T03:16:56.400Z,20.33
2022-08-17T03:19:25.589Z,22.38
2022-08-17T03:21:55.039Z,19.83
2022-08-17T03:24:28.949Z,23.00
2022-08-17T03:26:59.206Z,24.50
2022-08-17T03:29:28.556Z,30.13
2022-08-17T03:31:58.509Z,30.63
2022-08-17T03:34:29.284Z,34.55
2022-08-17T03:36:58.865Z,38.13
2022-08-17T03:39:29.940Z,41.65
2022-08-17T03:42:06.859Z,42.28
2022-08-17T03:44:37.343Z,42.00
2022-08-17T03:47:20.728Z,44.33
2022-08-17T03:50:10.416Z,40.08
2022-08-17T03:52:57.537Z,49.53
2022-08-17T03:55:45.420Z,41.28
2022-08-17T03:58:15.002Z,52.17
2022-08-17T04:00:46.453Z,46.30
2022-08-17T04:03:16.072Z,50.00
2022-08-17T04:05:45.395Z,45.53
2022-08-17T04:08:14.506Z,50.35
2022-08-17T04:10:45.482Z,48.20
2022-08-17T04:13:15.227Z,44.35
2022-08-17T04:15:53.466Z,45.72
2022-08-17T04:18:22.497Z,53.20
2022-08-17T04:20:52.444Z,49.55
2022-08-17T04:23:22.563Z,43.38
2022-08-17T04:25:55.866Z,48.97
2022-08-17T04:28:25.074Z,42.22
2022-08-17T04:30:54.325Z,48.38
2022-08-17T04:33:25.191Z,56.40
2022-08-17T04:35:56.316Z,50.60
2022-08-17T04:38:27.620Z,47.33
2022-08-17T04:43:47.555Z,47.58
2022-08-17T04:46:19.549Z,48.40
2022-08-17T04:48:51.621Z,47.28
2022-08-17T04:51:27.323Z,56.15
2022-08-17T04:53:59.126Z,50.17
2022-08-17T04:56:30.673Z,49.13
2022-08-17T04:59:05.435Z,56.13
2022-08-17T05:01:41.301Z,56.25
2022-08-17T05:04:33.130Z,50.45
2022-08-17T05:07:04.223Z,52.83
2022-08-17T05:09:33.929Z,50.45
2022-08-17T05:12:06.196Z,55.17
2022-08-17T05:14:36.062Z,48.38
2022-08-17T05:17:10.664Z,50.67
2022-08-17T05:19:41.337Z,52.55
2022-08-17T05:22:10.589Z,50.40
2022-08-17T05:24:43.704Z,56.78
2022-08-17T05:27:24.594Z,53.28
2022-08-17T05:29:59.024Z,50.97
2022-08-17T05:32:39.027Z,47.13
2022-08-17T05:35:18.551Z,50.92
2022-08-17T05:37:47.902Z,49.00
2022-08-17T05:40:17.375Z,47.10
2022-08-17T05:42:48.330Z,46.95
2022-08-17T05:45:54.705Z,51.42
2022-08-17T05:48:11.548Z,45.30
2022-08-17T05:50:50.921Z,48.15
2022-08-17T05:53:26.549Z,42.67
2022-08-17T05:56:11.602Z,45.15
2022-08-17T05:59:10.384Z,42.15
2022-08-17T06:01:49.830Z,40.47
2022-08-17T06:04:32.333Z,37.20
2022-08-17T06:07:11.715Z,45.78
2022-08-17T06:09:47.520Z,41.28
2022-08-17T06:12:35.725Z,35.92
2022-08-17T06:15:24.765Z,40.45
2022-08-17T06:17:57.526Z,38.13
2022-08-17T06:20:30.443Z,35.75
2022-08-17T06:23:07.597Z,36.15
2022-08-17T06:25:46.373Z,34.08
2022-08-17T06:28:24.431Z,34.08
2022-08-17T06:31:01.395Z,35.55
2022-08-17T06:33:34.801Z,36.80
2022-08-17T06:36:16.050Z,29.15
2022-08-17T06:41:31.671Z,33.20
2022-08-17T06:44:43.651Z,30.50
2022-08-17T06:47:12.934Z,29.63
2022-08-17T06:49:55.241Z,34.42
2022-08-17T06:52:42.173Z,26.40
2022-08-17T06:55:26.365Z,24.70
2022-08-17T06:58:05.788Z,27.58
2022-08-17T07:00:48.927Z,24.35
2022-08-17T07:03:38.032Z,22.70
2022-08-17T07:06:14.534Z,23.42
2022-08-17T07:08:54.873Z,21.00
2022-08-17T07:11:32.188Z,26.38
2022-08-17T07:14:17.500Z,21.85
2022-08-17T07:16:55.119Z,23.63
2022-08-17T07:19:29.220Z,24.95
2022-08-17T07:22:09.236Z,19.90
2022-08-17T07:24:47.949Z,18.10
2022-08-17T07:27:21.790Z,15.70
2022-08-17T07:29:55.131Z,23.08
2022-08-17T07:32:32.805Z,16.15
2022-08-17T07:35:16.937Z,17.50
2022-08-17T07:37:54.520Z,16.33
2022-08-17T07:40:42.668Z,14.57
2022-08-17T07:43:24.483Z,10.27
2022-08-17T07:46:22.259Z,11.45
2022-08-17T07:48:55.135Z,14.43
2022-08-17T07:51:31.426Z,16.33
2022-08-17T07:54:14.506Z,14.32
2022-08-17T07:56:48.085Z,13.18
2022-08-17T07:59:24.063Z,11.20
2022-08-17T08:02:31.752Z,11.77
2022-08-17T08:05:10.015Z,11.50
2022-08-17T08:07:54.432Z,13.13
2022-08-17T08:10:31.269Z,13.48
2022-08-17T08:13:08.600Z,11.45
2022-08-17T08:18:53.405Z,13.23
2022-08-17T08:21:29.858Z,10.90
2022-08-17T08:24:16.319Z,14.68
2022-08-17T08:26:55.615Z,14.75
2022-08-17T08:29:33.335Z,18.23
2022-08-17T08:32:23.022Z,11.48
2022-08-17T08:35:03.749Z,11.23
2022-08-17T08:37:46.983Z,12.88
2022-08-17T08:40:34.972Z,9.85
2022-08-17T08:43:16.681Z,15.25
2022-08-17T08:46:05.379Z,10.88
2022-08-17T08:49:09.989Z,8.75
2022-08-17T08:51:51.979Z,10.32
2022-08-17T08:54:35.442Z,8.48
2022-08-17T08:57:26.798Z,11.82
2022-08-17T09:00:10.186Z,7.43
2022-08-17T09:03:05.882Z,22.42
2022-08-17T09:05:49.871Z,13.25
2022-08-17T09:08:27.676Z,10.68
2022-08-17T09:11:01.655Z,9.88
2022-08-17T09:13:40.751Z,9.02
2022-08-17T09:16:16.626Z,7.55
2022-08-17T09:19:01.747Z,9.60
2022-08-17T09:21:48.440Z,6.50
2022-08-17T09:24:26.768Z,14.05
2022-08-17T09:27:02.607Z,7.30
2022-08-17T09:29:35.608Z,10.93
2022-08-17T09:32:14.909Z,9.52
2022-08-17T09:34:51.274Z,11.15
2022-08-17T09:37:38.839Z,7.20
2022-08-17T09:40:19.375Z,6.78
2022-08-17T09:46:02.034Z,8.10
2022-08-17T09:48:41.222Z,9.32
2022-08-17T09:51:19.845Z,5.53
2022-08-17T09:53:50.091Z,5.40
2022-08-17T09:56:56.435Z,7.00
2022-08-17T09:59:53.407Z,6.97
2022-08-17T10:02:44.389Z,5.93
2022-08-17T10:05:25.102Z,12.05
2022-08-17T10:08:09.565Z,6.10
2022-08-17T10:10:52.474Z,7.78
2022-08-17T10:13:35.564Z,4.65
2022-08-17T10:16:14.281Z,4.68
2022-08-17T10:18:53.297Z,6.25
2022-08-17T10:22:00.881Z,8.88
2022-08-17T10:25:01.890Z,6.93
2022-08-17T10:27:58.000Z,9.07
2022-08-17T10:30:41.105Z,6.38
2022-08-17T10:33:23.650Z,4.57
2022-08-17T10:36:06.385Z,8.38
2022-08-17T10:38:48.399Z,9.02
2022-08-17T10:41:38.166Z,7.70
2022-08-17T10:44:38.759Z,6.85
2022-08-17T10:47:11.522Z,7.07
2022-08-17T10:49:48.183Z,6.90
2022-08-17T10:52:54.878Z,11.55
2022-08-17T10:55:26.759Z,4.97
2022-08-17T10:58:22.189Z,6.82
2022-08-17T11:01:00.192Z,8.00
2022-08-17T11:03:33.748Z,6.25
2022-08-17T11:06:15.713Z,7.55
2022-08-17T11:09:31.780Z,6.70
2022-08-17T11:12:16.444Z,8.32
2022-08-17T11:15:03.031Z,8.45
2022-08-17T11:18:04.439Z,8.68
2022-08-17T11:23:40.920Z,8.48
2022-08-17T11:26:36.137Z,8.63
2022-08-17T11:29:24.735Z,6.25
2022-08-17T11:32:04.321Z,6.25
2022-08-17T11:34:35.746Z,7.85
2022-08-17T11:37:41.083Z,5.93
2022-08-17T11:40:34.798Z,5.47
2022-08-17T11:43:25.611Z,14.73
2022-08-17T11:46:12.124Z,9.30
2022-08-17T11:49:09.239Z,9.90
2022-08-17T11:52:13.807Z,6.72
2022-08-17T11:54:48.089Z,6.88
2022-08-17T11:57:47.450Z,6.47
2022-08-17T12:00:58.542Z,8.25
2022-08-17T12:06:51.688Z,7.45
2022-08-17T12:09:25.068Z,8.60
2022-08-17T12:12:12.182Z,10.80
2022-08-17T12:15:09.514Z,9.00
2022-08-17T12:17:53.111Z,7.93
2022-08-17T12:20:30.584Z,7.47
2022-08-17T12:23:09.717Z,8.75
2022-08-17T12:25:47.682Z,7.72
2022-08-17T12:28:26.410Z,10.90
2022-08-17T12:31:00.006Z,10.63
2022-08-17T12:33:33.258Z,7.95
2022-08-17T12:36:06.726Z,8.38
2022-08-17T12:38:39.832Z,12.13
2022-08-17T12:41:30.296Z,8.75
2022-08-17T12:44:02.903Z,11.10
2022-08-17T12:46:36.353Z,9.48
2022-08-17T12:49:24.691Z,15.25
2022-08-17T12:52:01.994Z,11.30
2022-08-17T12:54:41.237Z,9.93
2022-08-17T12:57:17.594Z,10.93
2022-08-17T12:59:51.863Z,8.80
2022-08-17T13:02:29.557Z,13.45
2022-08-17T13:05:02.231Z,13.70
2022-08-17T13:07:35.532Z,17.23
2022-08-17T13:10:07.337Z,16.60
2022-08-17T13:12:40.526Z,12.50
2022-08-17T13:15:18.701Z,11.82
2022-08-17T13:17:58.842Z,9.38
2022-08-17T13:20:30.423Z,21.65
2022-08-17T13:23:07.495Z,14.07
2022-08-17T13:25:43.186Z,11.55
2022-08-17T13:28:32.458Z,11.10
2022-08-17T13:31:28.136Z,12.55
2022-08-17T13:34:16.239Z,9.98
2022-08-17T13:36:50.798Z,12.77
2022-08-17T13:39:26.212Z,15.63
2022-08-17T13:41:58.720Z,10.63
2022-08-17T13:44:32.377Z,10.05
2022-08-17T13:47:03.417Z,17.65
2022-08-17T13:52:38.142Z,11.32
2022-08-17T13:55:17.264Z,10.75
2022-08-17T13:57:49.484Z,12.27
2022-08-17T14:00:36.691Z,9.55
2022-08-17T14:03:08.236Z,14.20
2022-08-17T14:05:40.237Z,15.18
2022-08-17T14:08:15.105Z,14.35
2022-08-17T14:10:53.541Z,13.05
2022-08-17T14:13:30.614Z,15.15
2022-08-17T14:16:03.485Z,17.95
2022-08-17T14:18:55.318Z,14.48
2022-08-17T14:21:25.189Z,16.77
2022-08-17T14:23:55.155Z,13.13
2022-08-17T14:26:25.677Z,14.48
2022-08-17T14:28:58.334Z,13.10
2022-08-17T14:31:37.401Z,10.82
2022-08-17T14:34:11.041Z,15.68
2022-08-17T14:36:48.209Z,10.70
2022-08-17T14:39:19.652Z,11.15
2022-08-17T14:44:22.341Z,11.02
2022-08-17T14:46:53.205Z,9.85
2022-08-17T14:49:26.101Z,16.00
2022-08-17T14:51:58.661Z,12.82
2022-08-17T14:54:34.302Z,11.88
2022-08-17T14:57:25.736Z,9.20
2022-08-17T15:00:04.516Z,9.52
2022-08-17T15:02:45.899Z,11.32
2022-08-17T15:05:16.840Z,9.10
2022-08-17T15:07:47.571Z,9.50
2022-08-17T15:10:20.706Z,7.70
2022-08-17T15:12:54.428Z,8.20
2022-08-17T15:15:25.853Z,11.13
2022-08-17T15:17:57.049Z,9.45
2022-08-17T15:20:30.082Z,9.20
2022-08-17T15:22:59.860Z,8.30
2022-08-17T15:25:34.232Z,9.03
2022-08-17T15:28:04.643Z,9.82
2022-08-17T15:30:45.289Z,5.32
2022-08-17T15:33:18.533Z,9.17
2022-08-17T15:35:53.625Z,9.32
2022-08-17T15:38:26.791Z,10.07
2022-08-17T15:40:58.629Z,9.68
2022-08-17T15:43:32.773Z,7.90
2022-08-17T15:46:14.800Z,10.18
2022-08-17T15:48:47.157Z,6.85
2022-08-17T15:51:21.269Z,9.35
2022-08-17T15:53:57.185Z,8.73
2022-08-17T15:56:28.106Z,8.15
2022-08-17T15:58:57.570Z,9.33
2022-08-17T16:02:59.327Z,10.40
2022-08-17T16:04:30.427Z,7.35
2022-08-17T16:07:01.768Z,10.32
2022-08-17T16:09:35.023Z,8.70
2022-08-17T16:12:14.256Z,9.73
2022-08-17T16:14:44.399Z,6.68
2022-08-17T16:17:38.808Z,6.22
2022-08-17T16:20:20.055Z,11.45
2022-08-17T16:22:54.434Z,8.88
2022-08-17T16:25:52.015Z,7.93
2022-08-17T16:28:35.761Z,9.43
2022-08-17T16:31:08.114Z,7.57
2022-08-17T16:33:41.238Z,7.68
2022-08-17T16:36:12.903Z,8.20
2022-08-17T16:38:45.555Z,11.55
2022-08-17T16:41:38.047Z,9.32
2022-08-17T16:44:08.525Z,12.07
2022-08-17T16:46:46.600Z,9.75
2022-08-17T16:52:11.514Z,15.95
2022-08-17T16:54:45.651Z,11.10
2022-08-17T16:57:18.653Z,10.48
2022-08-17T16:59:51.789Z,9.07
2022-08-17T17:02:32.869Z,14.40
2022-08-17T17:05:25.801Z,7.35
2022-08-17T17:08:03.710Z,10.52
2022-08-17T17:10:48.922Z,14.35
2022-08-17T17:13:27.357Z,13.55
2022-08-17T17:16:07.775Z,14.57
2022-08-17T17:18:58.644Z,10.20
2022-08-17T17:21:46.539Z,8.15
2022-08-17T17:24:35.954Z,10.73
2022-08-17T17:27:22.746Z,12.00
2022-08-17T17:30:40.311Z,10.27
2022-08-17T17:33:18.617Z,12.90
2022-08-17T17:36:33.340Z,13.23
2022-08-17T17:39:14.939Z,12.23
2022-08-17T17:42:04.869Z,9.88
2022-08-17T17:44:43.400Z,36.60
2022-08-17T17:47:17.965Z,69.20
2022-08-17T17:49:49.939Z,19.75
2022-08-17T17:52:28.264Z,30.25
2022-08-17T17:55:17.458Z,25.33
2022-08-17T17:58:04.165Z,28.85
2022-08-17T18:00:40.423Z,63.88
2022-08-17T18:03:31.821Z,19.98
2022-08-17T18:06:19.971Z,18.25
2022-08-17T18:09:07.532Z,25.95
2022-08-17T18:12:21.185Z,53.22
2022-08-17T18:15:12.155Z,17.05
2022-08-17T18:18:03.254Z,15.00
2022-08-17T18:20:53.453Z,17.30
2022-08-17T18:23:28.637Z,15.70
2022-08-17T18:25:59.843Z,18.20
2022-08-17T18:28:36.958Z,11.20
2022-08-17T18:31:13.779Z,18.33
2022-08-17T18:33:48.666Z,11.00
2022-08-17T18:36:29.697Z,14.25
2022-08-17T18:39:16.839Z,14.45
2022-08-17T18:41:52.303Z,11.82
2022-08-17T18:44:29.396Z,12.35
2022-08-17T18:47:14.889Z,12.48
2022-08-17T18:49:49.395Z,12.15
2022-08-17T18:52:26.261Z,15.15
2022-08-17T18:55:14.705Z,14.25
2022-08-17T18:57:47.754Z,10.75
2022-08-17T19:00:34.339Z,12.30
2022-08-17T19:03:07.693Z,14.00
2022-08-17T19:05:44.491Z,9.18
2022-08-17T19:08:24.122Z,12.18
2022-08-17T19:10:57.289Z,15.77
2022-08-17T19:13:33.076Z,14.50
2022-08-17T19:16:15.701Z,9.50
2022-08-17T19:18:52.122Z,11.88
2022-08-17T19:21:27.404Z,8.07
2022-08-17T19:24:04.876Z,9.27
2022-08-17T19:26:50.729Z,15.40
2022-08-17T19:29:34.200Z,10.43
2022-08-17T19:32:08.406Z,8.73
2022-08-17T19:34:44.743Z,12.30
2022-08-17T19:37:30.474Z,12.55
2022-08-17T19:40:10.221Z,10.15
2022-08-17T19:42:47.959Z,11.98
2022-08-17T19:45:32.880Z,14.90
2022-08-17T19:48:23.690Z,11.95
2022-08-17T19:51:03.025Z,16.13
2022-08-17T19:54:07.120Z,16.77
2022-08-17T19:56:49.035Z,11.43
2022-08-17T19:59:36.099Z,13.80
2022-08-17T20:02:32.237Z,11.57
2022-08-17T20:05:40.530Z,17.35
2022-08-17T20:08:50.918Z,10.93
2022-08-17T20:12:40.364Z,11.15
2022-08-17T20:15:13.780Z,10.52
2022-08-17T20:17:48.981Z,10.70
2022-08-17T20:20:34.075Z,13.50
2022-08-17T20:23:12.991Z,9.80
2022-08-17T20:26:09.037Z,11.43
2022-08-17T20:28:42.001Z,11.73
2022-08-17T20:31:46.170Z,12.90
2022-08-17T20:34:36.709Z,11.93
2022-08-17T20:37:12.335Z,9.13
2022-08-17T20:40:13.406Z,11.82
2022-08-17T20:42:49.129Z,15.88
2022-08-17T20:46:13.470Z,9.48
2022-08-17T20:48:46.871Z,11.27
2022-08-17T20:51:28.796Z,14.63
2022-08-17T20:54:36.837Z,12.63
2022-08-17T20:57:13.847Z,11.75
2022-08-17T21:00:14.266Z,14.30
2022-08-17T21:02:45.113Z,12.60
2022-08-17T21:05:43.215Z,9.38
2022-08-17T21:08:20.113Z,11.73
2022-08-17T21:10:50.512Z,13.45
2022-08-17T21:13:50.750Z,16.13
2022-08-17T21:16:38.887Z,11.20
2022-08-17T21:19:25.078Z,9.93
2022-08-17T21:22:07.581Z,12.68
2022-08-17T21:25:09.534Z,10.32
2022-08-17T21:27:50.471Z,10.07
2022-08-17T21:30:41.080Z,10.00
2022-08-17T21:33:24.530Z,11.77
2022-08-17T21:35:58.648Z,11.40
2022-08-17T21:38:36.145Z,10.30
2022-08-17T21:41:06.643Z,12.95
2022-08-17T21:43:38.342Z,11.68
2022-08-17T21:46:23.651Z,12.73
2022-08-17T21:48:56.414Z,9.27
2022-08-17T21:51:29.257Z,12.13
2022-08-17T21:54:01.460Z,12.68
2022-08-17T21:56:38.469Z,11.10
2022-08-17T21:59:10.432Z,12.75
2022-08-17T22:02:01.146Z,12.77
2022-08-17T22:04:32.495Z,12.95
2022-08-17T22:09:37.221Z,12.77
2022-08-17T22:12:11.570Z,11.27
2022-08-17T22:14:51.816Z,19.90
2022-08-17T22:17:27.277Z,12.38
2022-08-17T22:20:01.959Z,13.15
2022-08-17T22:23:01.938Z,15.63
2022-08-17T22:25:31.909Z,14.48
2022-08-17T22:28:03.230Z,12.02
2022-08-17T22:30:37.813Z,12.75
2022-08-17T22:33:38.401Z,10.60
2022-08-17T22:36:30.972Z,17.40
2022-08-17T22:39:02.124Z,13.40
2022-08-17T22:41:55.669Z,13.98
2022-08-17T22:44:29.693Z,12.07
2022-08-17T22:47:11.238Z,15.82
2022-08-17T22:49:53.167Z,11.15
2022-08-17T22:53:03.082Z,15.70
2022-08-17T22:55:48.582Z,10.07
2022-08-17T22:58:39.480Z,8.73
2022-08-17T23:01:25.817Z,9.98
2022-08-17T23:03:59.707Z,12.77
2022-08-17T23:06:37.832Z,11.95
2022-08-17T23:09:08.948Z,12.25
2022-08-17T23:11:48.714Z,10.90
2022-08-17T23:14:21.289Z,12.35
2022-08-17T23:16:53.106Z,14.90
2022-08-17T23:19:23.909Z,13.27
2022-08-17T23:21:58.028Z,10.20
2022-08-17T23:24:29.168Z,12.05
2022-08-17T23:27:00.134Z,10.48
2022-08-17T23:29:30.482Z,14.30
2022-08-17T23:32:01.717Z,14.43
2022-08-17T23:37:04.648Z,12.20
2022-08-17T23:39:34.784Z,16.23
2022-08-17T23:42:09.202Z,16.27
2022-08-17T23:44:39.676Z,10.05
2022-08-17T23:47:09.528Z,9.32
2022-08-17T23:49:39.265Z,11.50
2022-08-17T23:52:16.503Z,11.13
2022-08-17T23:54:48.503Z,14.43
2022-08-17T23:57:33.649Z,7.45
